sensor_id;sensor_type;location;lat;lon;timestamp;P1;P2;P0
45312;PMS7003;68267;51.540;5.854;2023-07-24T00:04:16;0.24;3.5;3.5
45312;PMS7003;68267;51.540;5.854;2023-07-24T00:17:36;0.72;3.93;3.71
45312;PMS7003;68267;51.540;5.854;2023-07-24T00:30:56;1.32;4.48;3.82
45312;PMS7003;68267;51.540;5.854;2023-07-24T00:44:15;1.8;4.91;4.26
45312;PMS7003;68267;51.540;5.854;2023-07-24T00:57:35;1.92;5.02;4.59
45312;PMS7003;68267;51.540;5.854;2023-07-24T01:10:55;2.64;5.68;5.35
45312;PMS7003;68267;51.540;5.854;2023-07-24T01:24:14;2.88;5.9;5.46
45312;PMS7003;68267;51.540;5.854;2023-07-24T01:37:34;5.65;6.66;6.22
45312;PMS7003;68267;51.540;5.854;2023-07-24T01:50:53;3.48;6.44;6.11
45312;PMS7003;68267;51.540;5.854;2023-07-24T02:04:13;4.09;6.99;6.22
45312;PMS7003;68267;51.540;5.854;2023-07-24T02:17:33;4.33;7.2;6.55
45312;PMS7003;68267;51.540;5.854;2023-07-24T02:30:52;5.05;7.86;7.09
45312;PMS7003;68267;51.540;5.854;2023-07-24T02:44:12;5.29;8.08;7.53
45312;PMS7003;68267;51.540;5.854;2023-07-24T02:57:32;5.41;8.18;7.31
45312;PMS7003;68267;51.540;5.854;2023-07-24T03:10:51;7.21;7.97;7.2
45312;PMS7003;68267;51.540;5.854;2023-07-24T03:24:11;4.21;7.09;6.88
45312;PMS7003;68267;51.540;5.854;2023-07-24T03:37:30;0.24;3.5;3.28
45312;PMS7003;68267;51.540;5.854;2023-07-24T03:50:50;0.01;2.62;2.19
45312;PMS7003;68267;51.540;5.854;2023-07-24T04:04:10;0.01;2.62;2.19
45312;PMS7003;68267;51.540;5.854;2023-07-24T04:17:29;0.24;3.5;3.28
45312;PMS7003;68267;51.540;5.854;2023-07-24T04:30:49;0.24;3.5;3.28
45312;PMS7003;68267;51.540;5.854;2023-07-24T04:44:08;0.24;3.5;3.39
45312;PMS7003;68267;51.540;5.854;2023-07-24T04:57:28;0.72;3.93;3.93
45312;PMS7003;68267;51.540;5.854;2023-07-24T05:10:48;1.56;4.7;4.37
45312;PMS7003;68267;51.540;5.854;2023-07-24T05:24:07;2.4;5.46;5.24
45312;PMS7003;68267;51.540;5.854;2023-07-24T05:37:27;2.52;5.57;5.46
45312;PMS7003;68267;51.540;5.854;2023-07-24T05:50:46;3.48;6.44;6.11
45312;PMS7003;68267;51.540;5.854;2023-07-24T06:04:06;2.64;5.68;5.02
45312;PMS7003;68267;51.540;5.854;2023-07-24T06:17:26;2.88;5.9;5.68
45312;PMS7003;68267;51.540;5.854;2023-07-24T06:30:45;5.05;7.86;7.09
45312;PMS7003;68267;51.540;5.854;2023-07-24T06:44:05;3.73;6.66;6.55
45312;PMS7003;68267;51.540;5.854;2023-07-24T06:57:24;3.85;6.77;6.44
45312;PMS7003;68267;51.540;5.854;2023-07-24T07:10:44;3.48;6.44;6.0
45312;PMS7003;68267;51.540;5.854;2023-07-24T07:24:04;5.41;6.22;5.9
45312;PMS7003;68267;51.540;5.854;2023-07-24T07:37:23;7.21;5.35;5.24
45312;PMS7003;68267;51.540;5.854;2023-07-24T07:50:43;2.4;5.46;5.13
45312;PMS7003;68267;51.540;5.854;2023-07-24T08:04:03;2.04;5.13;5.02
45312;PMS7003;68267;51.540;5.854;2023-07-24T08:17:22;1.44;4.59;4.26
45312;PMS7003;68267;51.540;5.854;2023-07-24T08:30:42;5.65;4.48;4.04
45312;PMS7003;68267;51.540;5.854;2023-07-24T08:44:01;5.65;4.91;4.91
45312;PMS7003;68267;51.540;5.854;2023-07-24T08:57:21;2.4;5.46;4.8
45312;PMS7003;68267;51.540;5.854;2023-07-24T09:10:41;1.32;4.48;4.37
45312;PMS7003;68267;51.540;5.854;2023-07-24T09:24:00;2.04;5.13;5.02
45312;PMS7003;68267;51.540;5.854;2023-07-24T09:37:20;1.56;4.7;4.26
45312;PMS7003;68267;51.540;5.854;2023-07-24T09:50:40;1.92;5.02;4.91
45312;PMS7003;68267;51.540;5.854;2023-07-24T10:03:59;0.72;3.93;3.61
45312;PMS7003;68267;51.540;5.854;2023-07-24T10:17:19;0.6;3.82;3.82
45312;PMS7003;68267;51.540;5.854;2023-07-24T10:30:39;7.81;4.91;4.8
45312;PMS7003;68267;51.540;5.854;2023-07-24T10:43:58;2.28;5.35;5.02
45312;PMS7003;68267;51.540;5.854;2023-07-24T10:57:18;3.48;6.44;6.11
45312;PMS7003;68267;51.540;5.854;2023-07-24T11:10:37;3.6;6.55;5.79
45312;PMS7003;68267;51.540;5.854;2023-07-24T11:23:57;4.33;7.2;6.99
45312;PMS7003;68267;51.540;5.854;2023-07-24T11:37:17;6.61;7.64;7.42
45312;PMS7003;68267;51.540;5.854;2023-07-24T11:50:36;2.4;5.46;5.13
45312;PMS7003;68267;51.540;5.854;2023-07-24T12:03:56;1.2;4.37;4.15
45312;PMS7003;68267;51.540;5.854;2023-07-24T12:17:16;6.01;5.46;5.46
45312;PMS7003;68267;51.540;5.854;2023-07-24T12:30:35;3.97;6.88;6.77
45312;PMS7003;68267;51.540;5.854;2023-07-24T12:43:55;6.25;7.53;7.31
45312;PMS7003;68267;51.540;5.854;2023-07-24T12:57:14;5.41;8.18;7.86
45312;PMS7003;68267;51.540;5.854;2023-07-24T13:10:34;4.81;7.64;7.53
45312;PMS7003;68267;51.540;5.854;2023-07-24T13:23:54;7.57;10.15;9.38
45312;PMS7003;68267;51.540;5.854;2023-07-24T13:37:13;8.53;11.02;10.69
45312;PMS7003;68267;51.540;5.854;2023-07-24T13:50:33;6.61;9.27;8.4
45312;PMS7003;68267;51.540;5.854;2023-07-24T14:03:53;5.65;8.4;8.08
45312;PMS7003;68267;51.540;5.854;2023-07-24T14:17:12;7.81;8.95;8.84
45312;PMS7003;68267;51.540;5.854;2023-07-24T14:30:32;5.77;8.51;8.29
45312;PMS7003;68267;51.540;5.854;2023-07-24T14:43:52;2.52;5.57;5.13
45312;PMS7003;68267;51.540;5.854;2023-07-24T14:57:11;7.21;8.29;8.18
45312;PMS7003;68267;51.540;5.854;2023-07-24T15:10:31;11.29;12.65;11.89
45312;PMS7003;68267;51.540;5.854;2023-07-24T15:23:50;8.29;10.8;10.47
45312;PMS7003;68267;51.540;5.854;2023-07-24T15:37:10;7.93;10.47;9.6
45312;PMS7003;68267;51.540;5.854;2023-07-24T15:50:30;6.85;9.49;9.17
45312;PMS7003;68267;51.540;5.854;2023-07-24T16:03:49;7.57;10.15;8.84
45312;PMS7003;68267;51.540;5.854;2023-07-24T16:17:09;1.68;4.8;3.93
45312;PMS7003;68267;51.540;5.854;2023-07-24T16:30:29;0.36;3.61;3.5
45312;PMS7003;68267;51.540;5.854;2023-07-24T16:43:48;3.24;6.22;5.68
45312;PMS7003;68267;51.540;5.854;2023-07-24T16:57:08;6.61;9.27;8.95
45312;PMS7003;68267;51.540;5.854;2023-07-24T17:10:28;9.49;11.89;10.91
45312;PMS7003;68267;51.540;5.854;2023-07-24T17:23:47;8.41;10.91;10.47
45312;PMS7003;68267;51.540;5.854;2023-07-24T17:37:07;11.05;13.31;12.33
45312;PMS7003;68267;51.540;5.854;2023-07-24T17:50:27;7.45;6.88;6.55
45312;PMS7003;68267;51.540;5.854;2023-07-24T18:03:46;5.53;6.66;5.9
45312;PMS7003;68267;51.540;5.854;2023-07-24T18:17:06;4.45;7.31;6.77
45312;PMS7003;68267;51.540;5.854;2023-07-24T18:30:25;2.04;5.13;4.26
45312;PMS7003;68267;51.540;5.854;2023-07-24T18:43:45;1.8;4.91;3.93
45312;PMS7003;68267;51.540;5.854;2023-07-24T18:57:05;0.01;2.95;2.08
45312;PMS7003;68267;51.540;5.854;2023-07-24T19:10:24;0.01;1.64;1.64
45312;PMS7003;68267;51.540;5.854;2023-07-24T19:23:44;0.01;1.97;1.64
45312;PMS7003;68267;51.540;5.854;2023-07-24T19:37:03;0.01;2.19;1.64
45312;PMS7003;68267;51.540;5.854;2023-07-24T19:50:23;0.01;1.86;1.64
45312;PMS7003;68267;51.540;5.854;2023-07-24T20:03:43;0.01;1.86;1.64
45312;PMS7003;68267;51.540;5.854;2023-07-24T20:17:02;26.53;3.17;1.97
45312;PMS7003;68267;51.540;5.854;2023-07-24T20:30:22;0.01;3.06;2.62
45312;PMS7003;68267;51.540;5.854;2023-07-24T20:43:41;0.01;2.95;2.19
45312;PMS7003;68267;51.540;5.854;2023-07-24T20:57:01;0.01;2.84;2.41
45312;PMS7003;68267;51.540;5.854;2023-07-24T21:10:21;2.4;3.39;2.3
45312;PMS7003;68267;51.540;5.854;2023-07-24T21:23:40;9.13;3.5;3.28
45312;PMS7003;68267;51.540;5.854;2023-07-24T21:37:00;0.48;3.71;3.28
45312;PMS7003;68267;51.540;5.854;2023-07-24T21:50:20;1.2;4.37;3.71
45312;PMS7003;68267;51.540;5.854;2023-07-24T22:03:39;1.32;4.48;3.82
45312;PMS7003;68267;51.540;5.854;2023-07-24T22:16:59;0.48;3.71;3.61
45312;PMS7003;68267;51.540;5.854;2023-07-24T22:30:19;1.8;4.91;4.04
45312;PMS7003;68267;51.540;5.854;2023-07-24T22:43:38;2.04;5.13;4.15
45312;PMS7003;68267;51.540;5.854;2023-07-24T22:56:58;1.44;4.59;3.82
45312;PMS7003;68267;51.540;5.854;2023-07-24T23:10:17;0.6;3.82;3.5
45312;PMS7003;68267;51.540;5.854;2023-07-24T23:23:37;2.04;5.13;4.7
45312;PMS7003;68267;51.540;5.854;2023-07-24T23:36:57;3.24;6.22;5.13
45312;PMS7003;68267;51.540;5.854;2023-07-24T23:50:16;3.0;6.0;5.02
